»·PEaware :: FDX102 KLAS-KABQ

FDX102 :: KLAS-KABQ

FLIGHT INFORMATION

Flight Status: Arrived
Operator:
Federal Express
More flights by this operator :: More flights under this callsign
Pilot: Cole F. (14495)
Aircraft: BOEING 727-200
(B722)
More flights by this aircraft type
Origin: KLAS McCarran Intl
United States
Destination: KABQ Albuquerque Intl Sunport
United States
More flights between these airports :: More routes between these airports
Route: HOOVR6 PGS J72 GUP CURLY3
File this flight plan on PilotEdge
Remarks:
Altitude:
(Current/Filed)
31,000ft
Speed:
(Current/Filed)
479kts
Departed: 14-Mar-20 12:08 PM
Arrived: 14-Mar-20 01:15 PM
Distance/Time
Traveled:
421nm/1:07
Distance/Time
To Go:
Arrived

Flight Plot

Page will automatically refresh every two minutes.

Flight plan parsing failed; only flown route is shown


Map Options




Map Legend


Flown Route
Filed Route
Departure Airport
Arrival Airport
Navaid (VOR, NDB)
Fix

Horizontal Profiles

Position Reports

Time Latitude Longitude Heading Altitude Ground
Speed
14-Mar-20 11:46 36.082370 -115.125724 89 2122ft 0kts
14-Mar-20 11:47 36.082370 -115.125724 89 2122ft 0kts
14-Mar-20 11:48 36.082370 -115.125724 89 2122ft 0kts
14-Mar-20 11:49 36.082370 -115.125724 89 2122ft 0kts
14-Mar-20 11:50 36.082370 -115.125724 89 2122ft 0kts
14-Mar-20 11:51 36.082370 -115.125724 89 2122ft 0kts
14-Mar-20 11:52 36.082370 -115.125724 89 2122ft 0kts
14-Mar-20 11:53 36.082370 -115.125724 89 2122ft 0kts
14-Mar-20 11:54 36.082421 -115.126305 129 2122ft 1kts
14-Mar-20 11:55 36.082183 -115.126367 180 2122ft 0kts
14-Mar-20 11:57 36.082183 -115.126367 180 2122ft 0kts
14-Mar-20 11:58 36.082183 -115.126367 180 2122ft 0kts
14-Mar-20 11:59 36.082183 -115.126367 180 2122ft 0kts
14-Mar-20 12:00 36.082183 -115.126367 180 2122ft 0kts
14-Mar-20 12:01 36.082183 -115.126367 180 2122ft 0kts
14-Mar-20 12:02 36.082183 -115.126367 180 2122ft 0kts
14-Mar-20 12:03 36.081169 -115.126392 180 2122ft 8kts
14-Mar-20 12:04 36.078634 -115.126357 165 2122ft 9kts
14-Mar-20 12:05 36.078184 -115.122614 120 2122ft 12kts
14-Mar-20 12:06 36.077571 -115.121635 131 2122ft 0kts
14-Mar-20 12:07 36.076483 -115.121354 225 2122ft 11kts
14-Mar-20 12:08 36.076679 -115.146873 270 2310ft 148kts
14-Mar-20 12:09 36.079294 -115.199746 270 3572ft 159kts
14-Mar-20 12:10 36.066433 -115.256867 212 5432ft 188kts
14-Mar-20 12:11 36.011454 -115.286228 200 7613ft 240kts
14-Mar-20 12:12 35.944621 -115.319057 203 10159ft 278kts
14-Mar-20 12:13 35.867064 -115.334327 151 12647ft 320kts
14-Mar-20 12:14 35.831916 -115.230770 104 15275ft 351kts
14-Mar-20 12:15 35.810717 -115.110563 104 17673ft 367kts
14-Mar-20 12:15 35.791877 -115.005764 104 19045ft 394kts
14-Mar-20 12:17 35.767343 -114.845342 94 21562ft 402kts
14-Mar-20 12:18 35.760401 -114.708941 95 23674ft 401kts
14-Mar-20 12:18 35.751184 -114.593412 98 24870ft 411kts
14-Mar-20 12:19 35.734223 -114.452714 101 26266ft 419kts
14-Mar-20 12:21 35.709981 -114.285376 102 27658ft 429kts
14-Mar-20 12:21 35.694337 -114.163195 101 28626ft 434kts
14-Mar-20 12:22 35.678772 -114.014413 100 29614ft 442kts
14-Mar-20 12:23 35.662659 -113.862860 102 30502ft 449kts
14-Mar-20 12:24 35.644020 -113.709302 102 31127ft 462kts
14-Mar-20 12:25 35.625120 -113.549824 103 31149ft 478kts
14-Mar-20 12:26 35.623801 -113.383027 94 31148ft 495kts
14-Mar-20 12:27 35.618477 -113.211161 96 31163ft 509kts
14-Mar-20 12:28 35.612457 -113.035759 96 31222ft 518kts
14-Mar-20 12:29 35.607079 -112.857064 96 31210ft 522kts
14-Mar-20 12:30 35.602679 -112.679951 95 31208ft 514kts
14-Mar-20 12:31 35.598517 -112.504557 96 31208ft 508kts
14-Mar-20 12:32 35.594117 -112.330899 96 31208ft 504kts
14-Mar-20 12:33 35.589662 -112.172513 97 31210ft 499kts
14-Mar-20 12:34 35.584202 -112.005252 97 31212ft 500kts
14-Mar-20 12:35 35.578494 -111.834231 97 31214ft 505kts
14-Mar-20 12:36 35.572467 -111.660383 97 31247ft 509kts
14-Mar-20 12:37 35.566391 -111.485299 97 31228ft 515kts
14-Mar-20 12:38 35.560149 -111.309133 98 31223ft 520kts
14-Mar-20 12:39 35.553994 -111.131196 90 31207ft 527kts
14-Mar-20 12:40 35.574376 -110.951570 88 31210ft 532kts
14-Mar-20 12:41 35.589322 -110.770513 89 31210ft 535kts
14-Mar-20 12:42 35.603985 -110.588156 89 31210ft 539kts
14-Mar-20 12:43 35.618867 -110.404605 89 31210ft 542kts
14-Mar-20 12:44 35.624825 -110.220341 100 31208ft 532kts
14-Mar-20 12:45 35.605318 -110.041466 105 31218ft 526kts
14-Mar-20 12:46 35.583481 -109.864292 105 31229ft 523kts
14-Mar-20 12:47 35.558340 -109.688827 107 31227ft 520kts
14-Mar-20 12:48 35.532935 -109.514636 108 31227ft 518kts
14-Mar-20 12:49 35.506549 -109.340670 108 31226ft 518kts
14-Mar-20 12:50 35.488049 -109.164122 98 31228ft 528kts
14-Mar-20 12:51 35.485723 -108.988321 98 30914ft 496kts
14-Mar-20 12:52 35.484087 -108.822309 100 29175ft 478kts
14-Mar-20 12:53 35.474559 -108.662209 101 27475ft 464kts
14-Mar-20 12:54 35.465556 -108.506864 101 25964ft 453kts
14-Mar-20 12:55 35.463689 -108.353361 96 24609ft 448kts
14-Mar-20 12:56 35.456182 -108.204749 102 23556ft 435kts
14-Mar-20 12:57 35.443376 -108.058934 102 22596ft 428kts
14-Mar-20 12:58 35.432505 -107.914827 100 21941ft 423kts
14-Mar-20 12:59 35.426360 -107.771273 97 21475ft 421kts
14-Mar-20 13:00 35.423682 -107.628781 95 20887ft 416kts
14-Mar-20 13:01 35.421626 -107.488415 95 20157ft 408kts
14-Mar-20 13:02 35.417989 -107.350671 96 18871ft 394kts
14-Mar-20 13:03 35.411627 -107.217978 98 17101ft 382kts
14-Mar-20 13:04 35.403376 -107.091165 98 15122ft 366kts
14-Mar-20 13:05 35.355287 -106.997443 153 13485ft 322kts
14-Mar-20 13:06 35.275031 -106.951700 158 11720ft 317kts
14-Mar-20 13:07 35.194934 -106.911254 160 11027ft 300kts
14-Mar-20 13:08 35.121725 -106.874574 160 10058ft 255kts
14-Mar-20 13:09 35.071181 -106.836522 120 9408ft 202kts
14-Mar-20 13:10 35.048051 -106.774409 115 8306ft 199kts
14-Mar-20 13:11 35.042985 -106.713983 85 7335ft 168kts
14-Mar-20 13:12 35.044357 -106.657548 96 6234ft 158kts
14-Mar-20 13:13 35.044429 -106.606428 94 5328ft 131kts
14-Mar-20 13:14 35.043296 -106.588183 167 5348ft 4kts
14-Mar-20 13:15 35.042521 -106.590032 269 5346ft 11kts
14-Mar-20 13:16 35.042541 -106.596013 269 5340ft 21kts
14-Mar-20 13:17 35.042601 -106.603674 269 5329ft 23kts
14-Mar-20 13:18 35.042433 -106.610906 269 5327ft 21kts
14-Mar-20 13:19 35.040169 -106.613839 180 5327ft 13kts
14-Mar-20 13:20 35.036110 -106.616000 223 5327ft 17kts
14-Mar-20 13:21 35.032446 -106.620422 224 5326ft 19kts
14-Mar-20 13:22 35.031143 -106.623080 225 5325ft 6kts
14-Mar-20 13:23 35.030014 -106.624457 224 5324ft 0kts
14-Mar-20 13:24 35.030026 -106.625481 314 5324ft 0kts
14-Mar-20 13:28 35.030037 -106.625494 315 5324ft 0kts

Navigation Log

Ident Type
Flight plan parsing failed, navigation log unavailable